sensor_id;sensor_type;location;lat;lon;timestamp;pressure;altitude;pressure_sealevel;temperature;humidity
17054;BME280;8643;48.824;11.422;2023-04-21T00:00:08;96534.19;;;5.61;100.00
17054;BME280;8643;48.824;11.422;2023-04-21T00:02:37;96541.78;;;5.50;100.00
17054;BME280;8643;48.824;11.422;2023-04-21T00:05:08;96544.94;;;5.44;100.00
17054;BME280;8643;48.824;11.422;2023-04-21T00:07:39;96547.09;;;5.33;100.00
17054;BME280;8643;48.824;11.422;2023-04-21T00:10:10;96546.53;;;5.22;100.00
17054;BME280;8643;48.824;11.422;2023-04-21T00:12:39;96543.22;;;5.11;100.00
17054;BME280;8643;48.824;11.422;2023-04-21T00:15:09;96545.88;;;5.03;100.00
17054;BME280;8643;48.824;11.422;2023-04-21T00:17:39;96544.38;;;4.96;100.00
17054;BME280;8643;48.824;11.422;2023-04-21T00:20:08;96542.19;;;4.85;100.00
17054;BME280;8643;48.824;11.422;2023-04-21T00:22:37;96545.63;;;4.76;100.00
17054;BME280;8643;48.824;11.422;2023-04-21T00:25:07;96540.91;;;4.68;100.00
17054;BME280;8643;48.824;11.422;2023-04-21T00:27:37;96539.47;;;4.71;100.00
17054;BME280;8643;48.824;11.422;2023-04-21T00:30:07;96542.50;;;4.69;100.00
17054;BME280;8643;48.824;11.422;2023-04-21T00:32:36;96539.09;;;4.64;100.00
17054;BME280;8643;48.824;11.422;2023-04-21T00:35:06;96552.66;;;4.64;100.00
17054;BME280;8643;48.824;11.422;2023-04-21T00:37:34;96542.91;;;4.63;100.00
17054;BME280;8643;48.824;11.422;2023-04-21T00:40:04;96546.84;;;4.56;100.00
17054;BME280;8643;48.824;11.422;2023-04-21T00:42:33;96542.22;;;4.57;100.00
17054;BME280;8643;48.824;11.422;2023-04-21T00:45:04;96544.34;;;4.60;100.00
17054;BME280;8643;48.824;11.422;2023-04-21T00:47:33;96547.53;;;4.62;100.00
17054;BME280;8643;48.824;11.422;2023-04-21T00:50:02;96544.53;;;4.64;100.00
17054;BME280;8643;48.824;11.422;2023-04-21T00:52:31;96544.34;;;4.60;100.00
17054;BME280;8643;48.824;11.422;2023-04-21T00:55:02;96555.06;;;4.65;100.00
17054;BME280;8643;48.824;11.422;2023-04-21T00:57:32;96545.22;;;4.69;100.00
17054;BME280;8643;48.824;11.422;2023-04-21T01:00:04;96550.03;;;4.72;100.00
17054;BME280;8643;48.824;11.422;2023-04-21T01:02:35;96547.63;;;4.71;100.00
17054;BME280;8643;48.824;11.422;2023-04-21T01:05:06;96554.16;;;4.70;100.00
17054;BME280;8643;48.824;11.422;2023-04-21T01:07:38;96551.16;;;4.71;100.00
17054;BME280;8643;48.824;11.422;2023-04-21T01:10:07;96548.84;;;4.65;100.00
17054;BME280;8643;48.824;11.422;2023-04-21T01:12:42;96545.72;;;4.71;100.00
17054;BME280;8643;48.824;11.422;2023-04-21T01:15:15;96544.59;;;4.72;100.00
17054;BME280;8643;48.824;11.422;2023-04-21T01:17:44;96541.09;;;4.72;100.00
17054;BME280;8643;48.824;11.422;2023-04-21T01:20:14;96547.53;;;4.76;100.00
17054;BME280;8643;48.824;11.422;2023-04-21T01:22:44;96541.47;;;4.79;100.00
17054;BME280;8643;48.824;11.422;2023-04-21T01:25:13;96549.84;;;4.83;100.00
17054;BME280;8643;48.824;11.422;2023-04-21T01:27:44;96552.56;;;4.69;100.00
17054;BME280;8643;48.824;11.422;2023-04-21T01:30:12;96547.72;;;4.66;100.00
17054;BME280;8643;48.824;11.422;2023-04-21T01:32:42;96549.94;;;4.64;100.00
17054;BME280;8643;48.824;11.422;2023-04-21T01:35:11;96543.72;;;4.63;100.00
17054;BME280;8643;48.824;11.422;2023-04-21T01:37:40;96544.59;;;4.72;100.00
17054;BME280;8643;48.824;11.422;2023-04-21T01:40:11;96546.09;;;4.78;100.00
17054;BME280;8643;48.824;11.422;2023-04-21T01:42:41;96539.41;;;4.76;100.00
17054;BME280;8643;48.824;11.422;2023-04-21T01:45:11;96539.47;;;4.85;100.00
17054;BME280;8643;48.824;11.422;2023-04-21T01:47:40;96526.09;;;4.88;100.00
17054;BME280;8643;48.824;11.422;2023-04-21T01:50:09;96528.25;;;4.77;100.00
17054;BME280;8643;48.824;11.422;2023-04-21T01:52:38;96532.97;;;4.72;100.00
17054;BME280;8643;48.824;11.422;2023-04-21T01:55:08;96525.91;;;4.71;100.00
17054;BME280;8643;48.824;11.422;2023-04-21T01:57:38;96521.41;;;4.80;100.00
17054;BME280;8643;48.824;11.422;2023-04-21T02:00:08;96525.59;;;4.86;100.00
17054;BME280;8643;48.824;11.422;2023-04-21T02:02:43;96528.41;;;4.95;100.00
17054;BME280;8643;48.824;11.422;2023-04-21T02:05:13;96523.06;;;5.04;100.00
17054;BME280;8643;48.824;11.422;2023-04-21T02:07:41;96523.13;;;5.12;100.00
17054;BME280;8643;48.824;11.422;2023-04-21T02:10:10;96523.31;;;5.16;100.00
17054;BME280;8643;48.824;11.422;2023-04-21T02:12:40;96516.28;;;5.15;100.00
17054;BME280;8643;48.824;11.422;2023-04-21T02:15:10;96508.63;;;5.17;100.00
17054;BME280;8643;48.824;11.422;2023-04-21T02:17:39;96494.28;;;5.17;100.00
17054;BME280;8643;48.824;11.422;2023-04-21T02:20:10;96493.31;;;5.21;100.00
17054;BME280;8643;48.824;11.422;2023-04-21T02:22:39;96510.22;;;5.18;100.00
17054;BME280;8643;48.824;11.422;2023-04-21T02:25:08;96514.69;;;5.14;100.00
17054;BME280;8643;48.824;11.422;2023-04-21T02:27:39;96516.09;;;5.11;100.00
17054;BME280;8643;48.824;11.422;2023-04-21T02:30:09;96522.03;;;5.13;100.00
17054;BME280;8643;48.824;11.422;2023-04-21T02:32:38;96532.56;;;5.15;100.00
17054;BME280;8643;48.824;11.422;2023-04-21T02:35:07;96533.69;;;5.14;100.00
17054;BME280;8643;48.824;11.422;2023-04-21T02:37:36;96551.88;;;5.13;100.00
17054;BME280;8643;48.824;11.422;2023-04-21T02:40:06;96552.69;;;5.14;100.00
17054;BME280;8643;48.824;11.422;2023-04-21T02:42:35;96561.31;;;5.16;100.00
17054;BME280;8643;48.824;11.422;2023-04-21T02:45:07;96552.56;;;5.19;100.00
17054;BME280;8643;48.824;11.422;2023-04-21T02:47:36;96557.38;;;5.22;100.00
17054;BME280;8643;48.824;11.422;2023-04-21T02:50:05;96544.81;;;5.26;100.00
17054;BME280;8643;48.824;11.422;2023-04-21T02:52:35;96535.34;;;5.24;100.00
17054;BME280;8643;48.824;11.422;2023-04-21T02:55:05;96535.06;;;5.25;100.00
17054;BME280;8643;48.824;11.422;2023-04-21T02:57:33;96534.16;;;5.16;100.00
17054;BME280;8643;48.824;11.422;2023-04-21T03:00:03;96535.31;;;5.01;100.00
17054;BME280;8643;48.824;11.422;2023-04-21T03:02:35;96531.41;;;4.93;100.00
17054;BME280;8643;48.824;11.422;2023-04-21T03:05:04;96533.44;;;4.88;100.00
17054;BME280;8643;48.824;11.422;2023-04-21T03:07:33;96551.22;;;4.80;100.00
17054;BME280;8643;48.824;11.422;2023-04-21T03:10:04;96542.38;;;4.88;100.00
17054;BME280;8643;48.824;11.422;2023-04-21T03:12:33;96532.13;;;4.85;100.00
17054;BME280;8643;48.824;11.422;2023-04-21T03:15:03;96523.19;;;4.85;100.00
17054;BME280;8643;48.824;11.422;2023-04-21T03:17:35;96531.03;;;4.86;100.00
17054;BME280;8643;48.824;11.422;2023-04-21T03:20:05;96526.53;;;4.82;100.00
17054;BME280;8643;48.824;11.422;2023-04-21T03:22:35;96531.25;;;4.76;100.00
17054;BME280;8643;48.824;11.422;2023-04-21T03:25:04;96523.13;;;4.76;100.00
17054;BME280;8643;48.824;11.422;2023-04-21T03:27:34;96524.81;;;4.72;100.00
17054;BME280;8643;48.824;11.422;2023-04-21T03:30:03;96526.84;;;4.66;100.00
17054;BME280;8643;48.824;11.422;2023-04-21T03:32:34;96524.44;;;4.65;100.00
17054;BME280;8643;48.824;11.422;2023-04-21T03:35:03;96534.38;;;4.55;100.00
17054;BME280;8643;48.824;11.422;2023-04-21T03:37:33;96531.00;;;4.50;100.00
17054;BME280;8643;48.824;11.422;2023-04-21T03:40:03;96529.06;;;4.50;100.00
17054;BME280;8643;48.824;11.422;2023-04-21T03:42:35;96526.97;;;4.47;100.00
17054;BME280;8643;48.824;11.422;2023-04-21T03:45:05;96531.91;;;4.45;100.00
17054;BME280;8643;48.824;11.422;2023-04-21T03:47:36;96525.88;;;4.48;100.00
17054;BME280;8643;48.824;11.422;2023-04-21T03:50:05;96521.72;;;4.51;100.00
17054;BME280;8643;48.824;11.422;2023-04-21T03:52:34;96520.94;;;4.50;100.00
17054;BME280;8643;48.824;11.422;2023-04-21T03:55:03;96540.53;;;4.47;100.00
17054;BME280;8643;48.824;11.422;2023-04-21T03:57:34;96538.41;;;4.44;100.00
17054;BME280;8643;48.824;11.422;2023-04-21T04:00:04;96540.03;;;4.45;100.00
17054;BME280;8643;48.824;11.422;2023-04-21T04:02:40;96543.72;;;4.49;100.00
17054;BME280;8643;48.824;11.422;2023-04-21T04:05:08;96539.13;;;4.50;100.00
17054;BME280;8643;48.824;11.422;2023-04-21T04:07:37;96536.00;;;4.56;100.00
17054;BME280;8643;48.824;11.422;2023-04-21T04:10:06;96535.91;;;4.62;100.00
17054;BME280;8643;48.824;11.422;2023-04-21T04:12:35;96537.41;;;4.68;100.00
17054;BME280;8643;48.824;11.422;2023-04-21T04:15:05;96527.72;;;4.75;100.00
17054;BME280;8643;48.824;11.422;2023-04-21T04:17:34;96527.72;;;4.75;100.00
17054;BME280;8643;48.824;11.422;2023-04-21T04:20:06;96505.03;;;4.71;100.00
17054;BME280;8643;48.824;11.422;2023-04-21T04:22:35;96510.38;;;4.63;100.00
17054;BME280;8643;48.824;11.422;2023-04-21T04:25:04;96512.16;;;4.67;100.00
17054;BME280;8643;48.824;11.422;2023-04-21T04:27:33;96504.84;;;4.68;100.00
17054;BME280;8643;48.824;11.422;2023-04-21T04:30:02;96500.91;;;4.74;100.00
17054;BME280;8643;48.824;11.422;2023-04-21T04:32:31;96516.56;;;4.77;100.00
17054;BME280;8643;48.824;11.422;2023-04-21T04:35:00;96525.13;;;4.84;100.00
17054;BME280;8643;48.824;11.422;2023-04-21T04:37:30;96528.31;;;4.86;100.00
17054;BME280;8643;48.824;11.422;2023-04-21T04:40:00;96535.84;;;4.89;100.00
17054;BME280;8643;48.824;11.422;2023-04-21T04:42:32;96543.88;;;4.94;100.00
17054;BME280;8643;48.824;11.422;2023-04-21T04:45:01;96540.06;;;4.95;100.00
17054;BME280;8643;48.824;11.422;2023-04-21T04:47:30;96540.25;;;4.99;100.00
17054;BME280;8643;48.824;11.422;2023-04-21T04:49:58;96543.66;;;5.05;100.00
17054;BME280;8643;48.824;11.422;2023-04-21T04:52:27;96548.59;;;5.03;100.00
17054;BME280;8643;48.824;11.422;2023-04-21T04:54:57;96555.50;;;5.09;100.00
17054;BME280;8643;48.824;11.422;2023-04-21T04:57:26;96559.59;;;5.20;100.00
17054;BME280;8643;48.824;11.422;2023-04-21T04:59:55;96551.09;;;5.36;100.00
17054;BME280;8643;48.824;11.422;2023-04-21T05:02:24;96557.44;;;5.31;100.00
17054;BME280;8643;48.824;11.422;2023-04-21T05:04:53;96550.41;;;5.30;100.00
17054;BME280;8643;48.824;11.422;2023-04-21T05:07:22;96551.66;;;5.24;100.00
17054;BME280;8643;48.824;11.422;2023-04-21T05:09:51;96560.56;;;5.24;100.00
17054;BME280;8643;48.824;11.422;2023-04-21T05:12:21;96562.06;;;5.30;100.00
17054;BME280;8643;48.824;11.422;2023-04-21T05:14:50;96565.81;;;5.35;100.00
17054;BME280;8643;48.824;11.422;2023-04-21T05:17:19;96567.81;;;5.29;100.00
17054;BME280;8643;48.824;11.422;2023-04-21T05:19:47;96572.94;;;5.30;100.00
17054;BME280;8643;48.824;11.422;2023-04-21T05:22:16;96581.75;;;5.36;100.00
17054;BME280;8643;48.824;11.422;2023-04-21T05:24:44;96582.44;;;5.42;100.00
17054;BME280;8643;48.824;11.422;2023-04-21T05:27:13;96586.06;;;5.51;100.00
17054;BME280;8643;48.824;11.422;2023-04-21T05:29:43;96587.72;;;5.61;100.00
17054;BME280;8643;48.824;11.422;2023-04-21T05:32:12;96580.25;;;5.66;100.00
17054;BME280;8643;48.824;11.422;2023-04-21T05:34:40;96574.25;;;5.78;100.00
17054;BME280;8643;48.824;11.422;2023-04-21T05:37:10;96584.81;;;5.80;100.00
17054;BME280;8643;48.824;11.422;2023-04-21T05:39:39;96586.47;;;5.90;100.00
17054;BME280;8643;48.824;11.422;2023-04-21T05:42:09;96582.09;;;6.02;100.00
17054;BME280;8643;48.824;11.422;2023-04-21T05:44:38;96579.88;;;6.04;100.00
17054;BME280;8643;48.824;11.422;2023-04-21T05:47:08;96578.50;;;6.16;100.00
17054;BME280;8643;48.824;11.422;2023-04-21T05:49:37;96579.22;;;6.30;100.00
17054;BME280;8643;48.824;11.422;2023-04-21T05:52:08;96581.41;;;6.51;100.00
17054;BME280;8643;48.824;11.422;2023-04-21T05:54:37;96578.25;;;6.66;100.00
17054;BME280;8643;48.824;11.422;2023-04-21T05:57:07;96571.13;;;6.88;100.00
17054;BME280;8643;48.824;11.422;2023-04-21T05:59:35;96570.22;;;7.27;100.00
17054;BME280;8643;48.824;11.422;2023-04-21T06:02:04;96580.63;;;7.34;100.00
17054;BME280;8643;48.824;11.422;2023-04-21T06:04:34;96576.78;;;7.44;100.00
17054;BME280;8643;48.824;11.422;2023-04-21T06:07:06;96567.81;;;7.43;100.00
17054;BME280;8643;48.824;11.422;2023-04-21T06:09:36;96570.06;;;7.50;100.00
17054;BME280;8643;48.824;11.422;2023-04-21T06:12:05;96574.06;;;7.70;100.00
17054;BME280;8643;48.824;11.422;2023-04-21T06:14:34;96580.00;;;7.63;100.00
17054;BME280;8643;48.824;11.422;2023-04-21T06:17:02;96579.34;;;7.58;100.00
17054;BME280;8643;48.824;11.422;2023-04-21T06:19:37;96582.38;;;7.56;100.00
17054;BME280;8643;48.824;11.422;2023-04-21T06:22:08;96580.16;;;7.41;100.00
17054;BME280;8643;48.824;11.422;2023-04-21T06:24:36;96578.25;;;7.50;100.00
17054;BME280;8643;48.824;11.422;2023-04-21T06:27:09;96578.41;;;7.53;100.00
17054;BME280;8643;48.824;11.422;2023-04-21T06:29:39;96583.38;;;7.51;100.00
17054;BME280;8643;48.824;11.422;2023-04-21T06:32:09;96580.47;;;7.65;100.00
17054;BME280;8643;48.824;11.422;2023-04-21T06:34:39;96578.06;;;7.73;100.00
17054;BME280;8643;48.824;11.422;2023-04-21T06:37:09;96589.88;;;8.03;100.00
17054;BME280;8643;48.824;11.422;2023-04-21T06:39:38;96589.47;;;8.48;100.00
17054;BME280;8643;48.824;11.422;2023-04-21T06:42:07;96591.00;;;9.05;100.00
17054;BME280;8643;48.824;11.422;2023-04-21T06:44:42;96583.56;;;9.35;100.00
17054;BME280;8643;48.824;11.422;2023-04-21T06:47:10;96570.50;;;9.62;100.00
17054;BME280;8643;48.824;11.422;2023-04-21T06:49:40;96565.19;;;9.99;100.00
17054;BME280;8643;48.824;11.422;2023-04-21T06:52:09;96570.69;;;10.12;100.00
17054;BME280;8643;48.824;11.422;2023-04-21T06:54:38;96576.75;;;10.30;100.00
17054;BME280;8643;48.824;11.422;2023-04-21T06:57:07;96587.44;;;10.10;100.00
17054;BME280;8643;48.824;11.422;2023-04-21T06:59:35;96593.22;;;10.08;100.00
17054;BME280;8643;48.824;11.422;2023-04-21T07:02:04;96591.94;;;10.27;100.00
17054;BME280;8643;48.824;11.422;2023-04-21T07:04:32;96584.63;;;10.19;100.00
17054;BME280;8643;48.824;11.422;2023-04-21T07:07:02;96581.06;;;10.52;100.00
17054;BME280;8643;48.824;11.422;2023-04-21T07:09:31;96583.13;;;10.55;100.00
17054;BME280;8643;48.824;11.422;2023-04-21T07:12:00;96580.84;;;11.18;100.00
17054;BME280;8643;48.824;11.422;2023-04-21T07:14:29;96581.53;;;11.28;100.00
17054;BME280;8643;48.824;11.422;2023-04-21T07:16:57;96580.53;;;10.95;100.00
17054;BME280;8643;48.824;11.422;2023-04-21T07:19:26;96577.06;;;10.49;100.00
17054;BME280;8643;48.824;11.422;2023-04-21T07:21:55;96576.16;;;10.82;100.00
17054;BME280;8643;48.824;11.422;2023-04-21T07:24:25;96576.94;;;11.32;100.00
17054;BME280;8643;48.824;11.422;2023-04-21T07:26:54;96568.13;;;11.79;100.00
17054;BME280;8643;48.824;11.422;2023-04-21T07:29:23;96565.00;;;12.21;100.00
17054;BME280;8643;48.824;11.422;2023-04-21T07:31:51;96566.94;;;12.05;100.00
17054;BME280;8643;48.824;11.422;2023-04-21T07:34:21;96572.38;;;11.77;100.00
17054;BME280;8643;48.824;11.422;2023-04-21T07:36:50;96569.94;;;11.47;100.00
17054;BME280;8643;48.824;11.422;2023-04-21T07:39:19;96571.28;;;11.00;100.00
17054;BME280;8643;48.824;11.422;2023-04-21T07:41:49;96578.34;;;10.76;100.00
17054;BME280;8643;48.824;11.422;2023-04-21T07:44:18;96582.13;;;10.96;100.00
17054;BME280;8643;48.824;11.422;2023-04-21T07:46:46;96571.53;;;12.17;100.00
17054;BME280;8643;48.824;11.422;2023-04-21T07:49:15;96583.72;;;12.95;100.00
17054;BME280;8643;48.824;11.422;2023-04-21T07:51:44;96583.28;;;14.00;100.00
17054;BME280;8643;48.824;11.422;2023-04-21T07:54:13;96588.59;;;14.51;100.00
17054;BME280;8643;48.824;11.422;2023-04-21T07:56:42;96584.94;;;14.04;100.00
17054;BME280;8643;48.824;11.422;2023-04-21T07:59:12;96589.53;;;13.77;100.00
17054;BME280;8643;48.824;11.422;2023-04-21T08:01:41;96581.69;;;13.08;100.00
17054;BME280;8643;48.824;11.422;2023-04-21T08:04:09;96590.47;;;12.50;100.00
17054;BME280;8643;48.824;11.422;2023-04-21T08:06:39;96588.56;;;12.38;100.00
17054;BME280;8643;48.824;11.422;2023-04-21T08:09:07;96592.66;;;13.24;100.00
17054;BME280;8643;48.824;11.422;2023-04-21T08:11:36;96597.50;;;13.82;100.00
17054;BME280;8643;48.824;11.422;2023-04-21T08:14:05;96597.41;;;13.98;100.00
17054;BME280;8643;48.824;11.422;2023-04-21T08:16:37;96587.81;;;14.51;100.00
17054;BME280;8643;48.824;11.422;2023-04-21T08:19:06;96584.22;;;14.70;100.00
17054;BME280;8643;48.824;11.422;2023-04-21T08:21:36;96581.22;;;15.28;100.00
17054;BME280;8643;48.824;11.422;2023-04-21T08:24:05;96588.03;;;15.91;100.00
17054;BME280;8643;48.824;11.422;2023-04-21T08:26:34;96581.28;;;15.89;90.21
17054;BME280;8643;48.824;11.422;2023-04-21T08:29:04;96573.53;;;16.77;89.56
17054;BME280;8643;48.824;11.422;2023-04-21T08:31:33;96577.50;;;16.35;87.79
17054;BME280;8643;48.824;11.422;2023-04-21T08:34:04;96569.75;;;16.92;94.99
17054;BME280;8643;48.824;11.422;2023-04-21T08:36:33;96563.44;;;16.92;96.79
17054;BME280;8643;48.824;11.422;2023-04-21T08:39:02;96564.44;;;17.21;91.62
17054;BME280;8643;48.824;11.422;2023-04-21T08:41:30;96570.28;;;16.64;89.27
17054;BME280;8643;48.824;11.422;2023-04-21T08:43:59;96567.63;;;17.23;85.76
17054;BME280;8643;48.824;11.422;2023-04-21T08:46:27;96561.56;;;16.65;82.40
17054;BME280;8643;48.824;11.422;2023-04-21T08:48:58;96561.34;;;17.30;84.26
17054;BME280;8643;48.824;11.422;2023-04-21T08:51:28;96557.19;;;17.02;82.98
17054;BME280;8643;48.824;11.422;2023-04-21T08:53:57;96567.91;;;17.70;83.69
17054;BME280;8643;48.824;11.422;2023-04-21T08:56:26;96563.94;;;17.67;84.01
17054;BME280;8643;48.824;11.422;2023-04-21T08:58:55;96554.38;;;17.54;76.06
17054;BME280;8643;48.824;11.422;2023-04-21T09:01:24;96560.13;;;17.97;84.57
17054;BME280;8643;48.824;11.422;2023-04-21T09:03:53;96558.59;;;18.10;82.09
17054;BME280;8643;48.824;11.422;2023-04-21T09:06:21;96554.28;;;18.20;81.21
17054;BME280;8643;48.824;11.422;2023-04-21T09:08:55;96554.34;;;18.45;76.95
17054;BME280;8643;48.824;11.422;2023-04-21T09:11:23;96555.22;;;18.93;82.62
17054;BME280;8643;48.824;11.422;2023-04-21T09:13:56;96558.38;;;19.27;83.54
17054;BME280;8643;48.824;11.422;2023-04-21T09:16:30;96564.19;;;19.94;78.34
17054;BME280;8643;48.824;11.422;2023-04-21T09:19:00;96569.78;;;19.83;79.31
17054;BME280;8643;48.824;11.422;2023-04-21T09:21:29;96564.69;;;19.49;81.93
17054;BME280;8643;48.824;11.422;2023-04-21T09:24:04;96557.97;;;19.18;76.52
17054;BME280;8643;48.824;11.422;2023-04-21T09:26:33;96567.88;;;19.33;73.63
17054;BME280;8643;48.824;11.422;2023-04-21T09:29:05;96559.56;;;19.30;74.24
17054;BME280;8643;48.824;11.422;2023-04-21T09:31:34;96555.44;;;19.95;71.87
17054;BME280;8643;48.824;11.422;2023-04-21T09:34:18;96554.34;;;19.60;66.96
17054;BME280;8643;48.824;11.422;2023-04-21T09:36:48;96567.50;;;19.35;67.12
17054;BME280;8643;48.824;11.422;2023-04-21T09:39:21;96556.34;;;19.42;73.48
17054;BME280;8643;48.824;11.422;2023-04-21T09:42:10;96554.38;;;18.63;71.32
17054;BME280;8643;48.824;11.422;2023-04-21T09:44:39;96556.78;;;19.30;76.98
17054;BME280;8643;48.824;11.422;2023-04-21T09:47:28;96560.22;;;19.91;69.92
17054;BME280;8643;48.824;11.422;2023-04-21T09:49:57;96552.63;;;20.03;69.55
17054;BME280;8643;48.824;11.422;2023-04-21T09:52:28;96551.03;;;20.09;66.35
17054;BME280;8643;48.824;11.422;2023-04-21T09:55:01;96554.28;;;19.86;63.55
17054;BME280;8643;48.824;11.422;2023-04-21T09:57:31;96552.31;;;19.86;70.12
17054;BME280;8643;48.824;11.422;2023-04-21T10:00:07;96540.50;;;19.39;67.16
17054;BME280;8643;48.824;11.422;2023-04-21T10:02:46;96549.19;;;19.55;68.03
17054;BME280;8643;48.824;11.422;2023-04-21T10:05:16;96543.09;;;20.04;72.08
17054;BME280;8643;48.824;11.422;2023-04-21T10:07:45;96540.22;;;20.29;73.59
17054;BME280;8643;48.824;11.422;2023-04-21T10:10:18;96533.25;;;20.66;64.14
17054;BME280;8643;48.824;11.422;2023-04-21T10:12:49;96529.97;;;20.78;64.34
17054;BME280;8643;48.824;11.422;2023-04-21T10:15:32;96536.00;;;20.69;68.68
17054;BME280;8643;48.824;11.422;2023-04-21T10:18:12;96529.72;;;21.11;62.83
17054;BME280;8643;48.824;11.422;2023-04-21T10:20:53;96522.31;;;21.35;65.79
17054;BME280;8643;48.824;11.422;2023-04-21T10:23:36;96519.84;;;21.44;61.79
17054;BME280;8643;48.824;11.422;2023-04-21T10:26:20;96519.00;;;20.53;59.70
17054;BME280;8643;48.824;11.422;2023-04-21T10:28:54;96528.44;;;20.74;67.27
17054;BME280;8643;48.824;11.422;2023-04-21T10:31:29;96526.50;;;20.60;62.98
17054;BME280;8643;48.824;11.422;2023-04-21T10:34:19;96522.91;;;21.57;62.10
17054;BME280;8643;48.824;11.422;2023-04-21T10:39:44;96524.91;;;20.62;62.18
17054;BME280;8643;48.824;11.422;2023-04-21T10:42:23;96523.53;;;20.88;59.49
17054;BME280;8643;48.824;11.422;2023-04-21T10:45:01;96509.72;;;20.74;60.43
17054;BME280;8643;48.824;11.422;2023-04-21T10:47:47;96507.56;;;20.96;65.58
17054;BME280;8643;48.824;11.422;2023-04-21T10:50:22;96506.44;;;20.90;62.24
17054;BME280;8643;48.824;11.422;2023-04-21T10:52:55;96502.97;;;21.62;62.64
17054;BME280;8643;48.824;11.422;2023-04-21T10:55:26;96509.88;;;21.50;60.65
17054;BME280;8643;48.824;11.422;2023-04-21T10:57:57;96498.78;;;21.39;58.43
17054;BME280;8643;48.824;11.422;2023-04-21T11:00:28;96495.47;;;21.17;58.35
17054;BME280;8643;48.824;11.422;2023-04-21T11:03:00;96500.84;;;21.35;60.53
17054;BME280;8643;48.824;11.422;2023-04-21T11:05:33;96501.50;;;21.85;62.23
17054;BME280;8643;48.824;11.422;2023-04-21T11:08:07;96495.09;;;22.49;63.05
17054;BME280;8643;48.824;11.422;2023-04-21T11:10:52;96505.28;;;22.60;61.64
17054;BME280;8643;48.824;11.422;2023-04-21T11:13:24;96486.03;;;22.11;61.07
17054;BME280;8643;48.824;11.422;2023-04-21T11:15:58;96480.25;;;22.25;58.49
17054;BME280;8643;48.824;11.422;2023-04-21T11:18:41;96484.44;;;22.68;56.30
17054;BME280;8643;48.824;11.422;2023-04-21T11:21:13;96478.44;;;22.93;64.38
17054;BME280;8643;48.824;11.422;2023-04-21T11:23:53;96477.75;;;23.13;60.47
17054;BME280;8643;48.824;11.422;2023-04-21T11:26:32;96488.22;;;23.05;55.81
17054;BME280;8643;48.824;11.422;2023-04-21T11:29:03;96468.81;;;22.47;52.58
17054;BME280;8643;48.824;11.422;2023-04-21T11:31:33;96476.41;;;22.15;56.09
17054;BME280;8643;48.824;11.422;2023-04-21T11:34:03;96476.63;;;22.28;54.01
17054;BME280;8643;48.824;11.422;2023-04-21T11:36:33;96473.31;;;22.10;58.85
17054;BME280;8643;48.824;11.422;2023-04-21T11:39:04;96475.34;;;22.37;63.45
17054;BME280;8643;48.824;11.422;2023-04-21T11:41:34;96479.09;;;22.77;57.32
17054;BME280;8643;48.824;11.422;2023-04-21T11:44:04;96478.28;;;21.95;54.11
17054;BME280;8643;48.824;11.422;2023-04-21T11:46:34;96475.22;;;22.17;55.11
17054;BME280;8643;48.824;11.422;2023-04-21T11:49:05;96475.34;;;22.06;58.97
17054;BME280;8643;48.824;11.422;2023-04-21T11:51:35;96477.72;;;22.38;56.31
17054;BME280;8643;48.824;11.422;2023-04-21T11:54:06;96469.16;;;22.76;52.47
17054;BME280;8643;48.824;11.422;2023-04-21T11:56:35;96457.97;;;22.76;55.62
17054;BME280;8643;48.824;11.422;2023-04-21T11:59:11;96466.22;;;22.60;60.28
17054;BME280;8643;48.824;11.422;2023-04-21T12:01:43;96469.63;;;22.71;55.48
17054;BME280;8643;48.824;11.422;2023-04-21T12:04:16;96466.84;;;22.71;55.71
17054;BME280;8643;48.824;11.422;2023-04-21T12:06:55;96468.91;;;22.67;58.08
17054;BME280;8643;48.824;11.422;2023-04-21T12:09:26;96470.84;;;23.17;58.13
17054;BME280;8643;48.824;11.422;2023-04-21T12:11:56;96468.25;;;23.06;56.58
17054;BME280;8643;48.824;11.422;2023-04-21T12:14:27;96466.09;;;23.38;54.01
17054;BME280;8643;48.824;11.422;2023-04-21T12:16:57;96458.38;;;23.46;51.84
17054;BME280;8643;48.824;11.422;2023-04-21T12:19:35;96468.00;;;23.85;51.54
17054;BME280;8643;48.824;11.422;2023-04-21T12:22:07;96459.06;;;23.50;54.08
17054;BME280;8643;48.824;11.422;2023-04-21T12:24:36;96463.22;;;23.41;52.53
17054;BME280;8643;48.824;11.422;2023-04-21T12:27:06;96464.38;;;23.64;48.61
17054;BME280;8643;48.824;11.422;2023-04-21T12:29:36;96462.63;;;23.10;52.36
17054;BME280;8643;48.824;11.422;2023-04-21T12:32:06;96456.69;;;23.08;52.44
17054;BME280;8643;48.824;11.422;2023-04-21T12:34:35;96462.25;;;23.52;52.50
17054;BME280;8643;48.824;11.422;2023-04-21T12:37:03;96454.63;;;23.32;53.93
17054;BME280;8643;48.824;11.422;2023-04-21T12:39:33;96452.69;;;24.09;50.51
17054;BME280;8643;48.824;11.422;2023-04-21T12:42:02;96455.78;;;23.95;48.87
17054;BME280;8643;48.824;11.422;2023-04-21T12:44:30;96449.06;;;23.92;52.05
17054;BME280;8643;48.824;11.422;2023-04-21T12:47:00;96448.22;;;24.12;55.60
17054;BME280;8643;48.824;11.422;2023-04-21T12:49:29;96446.91;;;24.16;48.81
17054;BME280;8643;48.824;11.422;2023-04-21T12:51:58;96445.88;;;24.63;50.13
17054;BME280;8643;48.824;11.422;2023-04-21T12:54:27;96448.00;;;23.86;46.49
17054;BME280;8643;48.824;11.422;2023-04-21T12:56:56;96447.75;;;23.77;47.35
17054;BME280;8643;48.824;11.422;2023-04-21T12:59:25;96448.63;;;23.74;53.11
17054;BME280;8643;48.824;11.422;2023-04-21T13:01:53;96444.53;;;24.35;54.22
17054;BME280;8643;48.824;11.422;2023-04-21T13:04:23;96452.84;;;23.82;48.17
17054;BME280;8643;48.824;11.422;2023-04-21T13:06:55;96444.19;;;23.96;49.81
17054;BME280;8643;48.824;11.422;2023-04-21T13:09:24;96436.03;;;24.22;49.49
17054;BME280;8643;48.824;11.422;2023-04-21T13:11:52;96437.25;;;24.38;51.18
17054;BME280;8643;48.824;11.422;2023-04-21T13:14:22;96438.56;;;24.33;50.04
17054;BME280;8643;48.824;11.422;2023-04-21T13:16:52;96437.63;;;24.03;48.02
17054;BME280;8643;48.824;11.422;2023-04-21T13:19:22;96433.94;;;23.70;47.70